Time;durP1;ratioP1;P1;durP2;ratioP2;P2;SDS_P1;SDS_P2;PMS_P1;PMS_P2;Temp;Humidity;BMP_temperature;BMP_pressure;BME280_temperature;BME280_humidity;BME280_pressure;Samples;Min_cycle;Max_cycle;Signal;HPM_P1;HPM_P2
2022/05/21 00:00:20;;;;;;;9.50;5.50;;;;;;;10.87;100.00;101287.38;687866;28;1736;-81
2022/05/21 00:00:41;;;;;;;8.95;5.43;;;;;;;10.88;100.00;101291.75;685199;28;1493;-81
2022/05/21 00:01:04;;;;;;;8.55;5.38;;;;;;;10.86;100.00;101283.00;684477;28;1366;-81
2022/05/21 00:01:25;;;;;;;8.73;5.45;;;;;;;10.85;100.00;101307.41;687164;28;1761;-81
2022/05/21 00:01:45;;;;;;;8.83;5.40;;;;;;;10.80;100.00;101306.53;675971;28;4388;-81
2022/05/21 00:02:07;;;;;;;8.55;5.07;;;;;;;10.75;100.00;101289.06;682728;28;1619;-81
2022/05/21 00:02:30;;;;;;;8.07;5.20;;;;;;;10.72;100.00;101297.75;685549;28;1727;-81
2022/05/21 00:02:51;;;;;;;7.25;5.13;;;;;;;10.69;100.00;101279.44;681793;29;1779;-82
2022/05/21 00:03:12;;;;;;;8.23;5.22;;;;;;;10.66;100.00;101300.34;685123;28;1331;-81
2022/05/21 00:03:33;;;;;;;9.27;5.10;;;;;;;10.62;100.00;101288.09;687699;28;1173;-81
2022/05/21 00:03:54;;;;;;;9.07;5.43;;;;;;;10.59;100.00;101311.63;682024;29;2534;-81
2022/05/21 00:04:16;;;;;;;8.77;5.60;;;;;;;10.64;100.00;101304.69;683922;28;1445;-81
2022/05/21 00:04:37;;;;;;;9.00;5.57;;;;;;;10.65;100.00;101309.06;685354;28;4416;-81
2022/05/21 00:05:05;;;;;;;9.48;5.45;;;;;;;10.65;100.00;101291.63;687760;28;1090;-81
2022/05/21 00:05:30;;;;;;;8.98;5.50;;;;;;;10.65;100.00;101286.41;685787;28;1061;-81
2022/05/21 00:05:53;;;;;;;7.45;5.28;;;;;;;10.66;100.00;101296.00;687822;28;1338;-81
2022/05/21 00:06:20;;;;;;;7.97;5.50;;;;;;;10.69;100.00;101284.69;687953;28;1640;-82
2022/05/21 00:06:41;;;;;;;7.25;5.13;;;;;;;10.70;100.00;101305.59;690245;28;1399;-82
2022/05/21 00:07:03;;;;;;;8.02;5.28;;;;;;;10.67;100.00;101302.09;687899;28;1836;-82
2022/05/21 00:07:23;;;;;;;8.90;5.30;;;;;;;10.66;100.00;101301.22;687483;28;1448;-81
2022/05/21 00:07:44;;;;;;;8.53;5.40;;;;;;;10.65;100.00;101290.75;683392;28;4309;-81
2022/05/21 00:08:09;;;;;;;8.80;5.18;;;;;;;10.66;100.00;101282.03;682722;28;1350;-82
2022/05/21 00:08:32;;;;;;;8.68;5.22;;;;;;;10.57;100.00;101275.03;682133;29;1970;-82
2022/05/21 00:08:52;;;;;;;7.72;5.40;;;;;;;10.54;100.00;101304.63;679948;29;1185;-81
2022/05/21 00:09:13;;;;;;;8.60;5.70;;;;;;;10.57;100.00;101288.97;680252;29;1262;-81
2022/05/21 00:09:34;;;;;;;8.07;5.63;;;;;;;10.58;100.00;101279.41;680040;29;1911;-81
2022/05/21 00:09:57;;;;;;;7.82;5.30;;;;;;;10.59;100.00;101282.88;682061;28;1281;-81
2022/05/21 00:10:23;;;;;;;8.48;5.40;;;;;;;10.60;100.00;101287.25;687411;28;1393;-81
2022/05/21 00:10:46;;;;;;;7.82;5.47;;;;;;;10.61;100.00;101271.56;684734;28;4398;-81
2022/05/21 00:11:07;;;;;;;8.68;5.40;;;;;;;10.61;100.00;101275.94;687919;28;1430;-82
2022/05/21 00:11:28;;;;;;;9.83;5.50;;;;;;;10.61;100.00;101302.06;690710;28;1804;-82
2022/05/21 00:11:50;;;;;;;8.73;5.50;;;;;;;10.61;100.00;101302.06;686641;28;1362;-81
2022/05/21 00:12:14;;;;;;;8.70;5.50;;;;;;;10.59;100.00;101299.41;685406;28;1414;-81
2022/05/21 00:12:35;;;;;;;9.73;5.53;;;;;;;10.55;100.00;101282.00;682448;29;1697;-81
2022/05/21 00:13:00;;;;;;;9.25;5.63;;;;;;;10.53;100.00;101287.19;684468;28;1531;-82
2022/05/21 00:13:25;;;;;;;8.57;5.38;;;;;;;10.54;100.00;101291.56;684518;28;1442;-81
2022/05/21 00:13:48;;;;;;;8.38;5.65;;;;;;;10.52;100.00;101275.00;684773;28;4336;-81
2022/05/21 00:14:09;;;;;;;7.78;5.50;;;;;;;10.50;100.00;101300.25;687406;28;1236;-81
2022/05/21 00:14:34;;;;;;;8.85;5.60;;;;;;;10.49;100.00;101301.13;688124;28;1256;-82
2022/05/21 00:14:57;;;;;;;9.25;5.32;;;;;;;10.54;100.00;101306.38;687649;28;1434;-81
2022/05/21 00:15:23;;;;;;;9.18;5.38;;;;;;;10.57;100.00;101315.09;685342;28;1352;-81
2022/05/21 00:15:47;;;;;;;9.07;5.50;;;;;;;10.54;100.00;101278.50;684853;28;1454;-81
2022/05/21 00:16:07;;;;;;;8.45;5.40;;;;;;;10.60;100.00;101276.78;687140;28;1539;-81
2022/05/21 00:16:32;;;;;;;7.43;5.33;;;;;;;10.52;100.00;101274.13;688781;28;1462;-81
2022/05/21 00:16:52;;;;;;;7.97;5.22;;;;;;;10.54;100.00;101290.69;689010;28;4312;-81
2022/05/21 00:17:13;;;;;;;8.48;5.30;;;;;;;10.57;100.00;101291.56;685592;28;1180;-81
2022/05/21 00:17:34;;;;;;;8.27;5.33;;;;;;;10.52;100.00;101277.63;688031;28;1351;-82
2022/05/21 00:17:57;;;;;;;9.70;5.50;;;;;;;10.47;100.00;101292.41;682423;28;1387;-81
2022/05/21 00:18:20;;;;;;;9.52;5.63;;;;;;;10.42;100.00;101296.72;682899;28;1421;-81
2022/05/21 00:18:43;;;;;;;8.45;5.53;;;;;;;10.47;100.00;101283.69;687124;28;1543;-81
2022/05/21 00:19:09;;;;;;;12.45;7.15;;;;;;;10.46;100.00;101297.63;687019;28;1240;-82
2022/05/21 00:19:32;;;;;;;9.98;6.32;;;;;;;10.46;100.00;101274.97;686804;28;1517;-81
2022/05/21 00:19:53;;;;;;;9.00;5.32;;;;;;;10.44;100.00;101287.16;691364;28;4283;-82
2022/05/21 00:21:05;;;;;;;9.80;5.90;;;;;;;10.45;100.00;101296.72;683309;28;1154;-81
2022/05/21 00:21:28;;;;;;;9.38;6.20;;;;;;;10.47;100.00;101278.47;684674;28;901;-81
2022/05/21 00:21:55;;;;;;;8.90;5.82;;;;;;;10.47;100.00;101294.16;684580;28;1003;-82
2022/05/21 00:22:18;;;;;;;9.98;6.38;;;;;;;10.41;100.00;101283.66;687576;28;1466;-81
2022/05/21 00:22:44;;;;;;;9.57;6.30;;;;;;;10.40;100.00;101324.59;688428;28;4287;-81
2022/05/21 00:23:13;;;;;;;9.05;6.10;;;;;;;10.37;100.00;101306.25;689257;28;1811;-81
2022/05/21 00:23:35;;;;;;;9.40;6.13;;;;;;;10.35;100.00;101294.94;692881;28;1464;-81
2022/05/21 00:23:56;;;;;;;10.45;6.10;;;;;;;10.38;100.00;101303.69;691927;28;1421;-82
2022/05/21 00:24:20;;;;;;;9.30;6.00;;;;;;;10.39;100.00;101296.72;694244;28;1472;-82
2022/05/21 00:24:43;;;;;;;8.75;6.25;;;;;;;10.36;100.00;101296.69;692501;28;1472;-81
2022/05/21 00:25:04;;;;;;;9.60;5.97;;;;;;;10.36;100.00;101292.34;688049;28;1452;-81
2022/05/21 00:25:34;;;;;;;10.18;5.95;;;;;;;10.37;100.00;101317.63;684148;28;1377;-82
2022/05/21 00:26:11;;;;;;;12.03;6.37;;;;;;;10.38;100.00;101268.81;684185;28;4353;-81
2022/05/21 00:26:32;;;;;;;8.77;5.65;;;;;;;10.41;100.00;101297.56;686599;28;1637;-81
2022/05/21 00:26:58;;;;;;;10.27;6.30;;;;;;;10.43;100.00;101298.47;688314;28;1454;-82
2022/05/21 00:27:19;;;;;;;8.82;5.88;;;;;;;10.46;100.00;101313.31;688425;28;2014;-81
2022/05/21 00:27:42;;;;;;;8.93;5.72;;;;;;;10.43;100.00;101282.78;686786;28;1635;-82
2022/05/21 00:28:02;;;;;;;8.23;5.88;;;;;;;10.40;100.00;101280.16;684705;28;1654;-82
2022/05/21 00:28:27;;;;;;;10.00;6.22;;;;;;;10.42;100.00;101290.63;682257;28;1890;-81
2022/05/21 00:28:51;;;;;;;8.77;5.72;;;;;;;10.39;100.00;101281.03;683155;28;4309;-82
2022/05/21 00:29:11;;;;;;;9.23;6.07;;;;;;;10.35;100.00;101282.72;684199;28;1660;-81
2022/05/21 00:29:33;;;;;;;9.45;6.28;;;;;;;10.34;100.00;101278.41;685041;28;1650;-82
2022/05/21 00:29:56;;;;;;;9.73;6.30;;;;;;;10.34;100.00;101285.31;683113;28;1410;-82
2022/05/21 00:30:17;;;;;;;9.95;6.20;;;;;;;10.35;100.00;101301.03;686995;28;1081;-81
2022/05/21 00:30:38;;;;;;;9.68;5.90;;;;;;;10.38;100.00;101280.16;684773;28;1478;-82
2022/05/21 00:30:59;;;;;;;8.88;5.80;;;;;;;10.35;100.00;101274.91;685974;28;1378;-81
2022/05/21 00:31:20;;;;;;;9.15;6.15;;;;;;;10.31;100.00;101287.91;683495;28;1311;-81
2022/05/21 00:31:41;;;;;;;10.25;6.22;;;;;;;10.29;100.00;101298.34;684441;28;4333;-82
2022/05/21 00:32:05;;;;;;;9.90;5.90;;;;;;;10.29;100.00;101273.97;688151;28;1658;-82
2022/05/21 00:32:28;;;;;;;8.95;6.03;;;;;;;10.31;100.00;101301.84;688098;28;1348;-82
2022/05/21 00:32:49;;;;;;;10.82;6.13;;;;;;;10.31;100.00;101298.38;685627;28;2296;-81
2022/05/21 00:33:10;;;;;;;10.65;6.03;;;;;;;10.34;100.00;101295.75;684231;28;1612;-81
2022/05/21 00:33:31;;;;;;;11.77;6.43;;;;;;;10.36;100.00;101307.16;684178;28;1558;-82
2022/05/21 00:33:52;;;;;;;9.82;6.35;;;;;;;10.33;100.00;101296.66;687978;28;1553;-81
2022/05/21 00:34:15;;;;;;;9.25;5.95;;;;;;;10.38;100.00;101306.31;688251;28;1232;-81
2022/05/21 00:34:38;;;;;;;10.03;6.20;;;;;;;10.36;100.00;101291.47;686442;28;4469;-81
2022/05/21 00:35:01;;;;;;;10.20;6.28;;;;;;;10.35;100.00;101301.03;685336;28;1386;-81
2022/05/21 00:35:24;;;;;;;9.38;5.88;;;;;;;10.38;100.00;101287.09;689132;28;1595;-82
2022/05/21 00:35:48;;;;;;;10.37;5.97;;;;;;;10.34;100.00;101275.78;684677;28;1277;-82
2022/05/21 00:36:15;;;;;;;10.25;6.30;;;;;;;10.39;100.00;101307.16;683013;28;1354;-81
2022/05/21 00:36:38;;;;;;;9.20;6.15;;;;;;;10.42;100.00;101304.56;685274;28;1270;-81
2022/05/21 00:37:01;;;;;;;9.75;5.85;;;;;;;10.41;100.00;101308.03;684088;28;1451;-82
2022/05/21 00:37:24;;;;;;;10.02;6.30;;;;;;;10.42;100.00;101301.94;684152;28;1778;-82
2022/05/21 00:37:45;;;;;;;8.68;6.10;;;;;;;10.37;100.00;101294.09;685978;28;4303;-82
2022/05/21 00:38:17;;;;;;;9.17;6.00;;;;;;;10.29;100.00;101293.13;684955;28;1340;-81
2022/05/21 00:38:42;;;;;;;9.32;6.10;;;;;;;10.25;100.00;101282.66;686150;28;1314;-81
2022/05/21 00:39:07;;;;;;;9.57;5.93;;;;;;;10.29;100.00;101315.78;684132;28;1428;-81
2022/05/21 00:39:30;;;;;;;9.63;5.85;;;;;;;10.28;100.00;101285.28;685087;28;1338;-81
2022/05/21 00:39:54;;;;;;;9.43;5.97;;;;;;;10.29;100.00;101294.88;685736;28;1886;-81
2022/05/21 00:40:14;;;;;;;9.90;6.10;;;;;;;10.29;100.00;101276.59;686958;28;1549;-81
2022/05/21 00:40:36;;;;;;;9.73;5.97;;;;;;;10.27;100.00;101270.47;691648;28;1567;-82
2022/05/21 00:40:57;;;;;;;9.57;5.95;;;;;;;10.25;100.00;101299.19;692190;28;4893;-81
2022/05/21 00:41:20;;;;;;;8.93;5.80;;;;;;;10.24;100.00;101276.53;692967;28;1486;-82
2022/05/21 00:41:43;;;;;;;7.75;5.78;;;;;;;10.22;100.00;101286.13;686894;28;1473;-81
2022/05/21 00:42:06;;;;;;;10.40;6.20;;;;;;;10.24;100.00;101294.84;687841;28;1859;-82
2022/05/21 00:42:31;;;;;;;9.32;5.78;;;;;;;10.25;100.00;101272.22;691753;28;1611;-81
2022/05/21 00:42:52;;;;;;;9.18;5.90;;;;;;;10.26;100.00;101290.50;690749;28;1064;-81
2022/05/21 00:43:34;;;;;;;11.33;6.30;;;;;;;10.25;100.00;101270.47;685748;28;1352;-81
2022/05/21 00:43:59;;;;;;;9.93;6.18;;;;;;;10.27;100.00;101275.69;686293;28;5005;-81
2022/05/21 00:44:21;;;;;;;10.68;6.15;;;;;;;10.24;100.00;101292.22;686352;28;1385;-82
2022/05/21 00:44:41;;;;;;;9.98;5.95;;;;;;;10.20;100.00;101278.28;684195;28;2075;-81
2022/05/21 00:45:07;;;;;;;8.13;5.63;;;;;;;10.25;100.00;101272.22;687558;28;1493;-82
2022/05/21 00:45:31;;;;;;;9.65;5.72;;;;;;;10.26;100.00;101268.72;683340;28;1705;-81
2022/05/21 00:45:54;;;;;;;9.93;5.50;;;;;;;10.26;100.00;101274.81;684565;28;1625;-81
2022/05/21 00:46:23;;;;;;;10.63;6.05;;;;;;;10.24;100.00;101273.94;689829;28;1332;-82
2022/05/21 00:46:45;;;;;;;9.95;6.35;;;;;;;10.26;100.00;101282.66;689208;28;4331;-82
2022/05/21 00:47:09;;;;;;;10.75;5.95;;;;;;;10.25;100.00;101266.97;684404;28;1356;-81
2022/05/21 00:47:30;;;;;;;10.32;5.97;;;;;;;10.19;100.00;101279.13;689212;28;1471;-81
2022/05/21 00:47:53;;;;;;;9.75;6.15;;;;;;;10.18;100.00;101300.88;686453;28;1572;-81
2022/05/21 00:48:15;;;;;;;8.38;6.00;;;;;;;10.16;100.00;101289.56;687164;28;1278;-82
2022/05/21 00:48:37;;;;;;;9.10;6.43;;;;;;;10.14;100.00;101273.00;686517;28;1764;-81
2022/05/21 00:49:28;;;;;;;9.73;6.57;;;;;;;10.12;100.00;101277.34;685891;28;1639;-81
2022/05/21 00:49:49;;;;;;;11.07;6.30;;;;;;;10.14;100.00;101286.06;688960;28;4393;-81
2022/05/21 00:50:13;;;;;;;10.80;6.10;;;;;;;10.15;100.00;101277.38;689492;28;1667;-81
2022/05/21 00:50:34;;;;;;;9.25;6.05;;;;;;;10.19;100.00;101312.22;687030;28;1540;-81
2022/05/21 00:50:55;;;;;;;9.68;6.00;;;;;;;10.19;100.00;101293.91;682385;28;1531;-81
2022/05/21 00:51:25;;;;;;;9.40;5.80;;;;;;;10.16;100.00;101292.19;682176;28;1526;-81
2022/05/21 00:52:04;;;;;;;10.68;6.07;;;;;;;10.14;100.00;101312.19;682889;28;1469;-81
2022/05/21 00:52:27;;;;;;;10.10;6.10;;;;;;;10.17;100.00;101298.28;683265;28;1307;-82
2022/05/21 00:52:52;;;;;;;10.07;6.40;;;;;;;10.21;100.00;101307.88;686951;28;4247;-82
2022/05/21 00:53:15;;;;;;;12.93;6.70;;;;;;;10.21;100.00;101298.28;689589;28;1244;-82
2022/05/21 00:53:39;;;;;;;9.15;5.90;;;;;;;10.24;100.00;101313.13;685963;28;1802;-81
2022/05/21 00:54:04;;;;;;;8.73;6.00;;;;;;;10.25;100.00;101308.78;685856;28;1600;-82
2022/05/21 00:54:31;;;;;;;8.57;5.90;;;;;;;10.23;100.00;101296.59;684234;28;1229;-81
2022/05/21 00:55:04;;;;;;;10.07;5.90;;;;;;;10.21;100.00;101285.22;681934;28;1170;-80
2022/05/21 00:55:32;;;;;;;9.80;6.20;;;;;;;10.23;100.00;101291.34;684264;28;1412;-80
2022/05/21 00:55:52;;;;;;;10.10;5.95;;;;;;;10.22;100.00;101286.97;684104;28;4275;-81
2022/05/21 00:56:16;;;;;;;9.00;5.93;;;;;;;10.22;100.00;101283.50;685725;28;1544;-81
2022/05/21 00:56:44;;;;;;;8.88;5.60;;;;;;;10.31;100.00;101282.69;686291;28;1100;-81
2022/05/21 00:57:22;;;;;;;9.13;5.88;;;;;;;10.28;100.00;101290.50;687902;28;1564;-81
2022/05/21 01:00:09;;;;;;;9.57;6.43;;;;;;;10.17;100.00;101291.28;684870;28;1975;-80
2022/05/21 01:00:32;;;;;;;12.18;6.03;;;;;;;10.15;100.00;101321.78;685639;28;1271;-81
2022/05/21 01:00:54;;;;;;;10.90;6.43;;;;;;;10.15;100.00;101282.59;684686;28;1657;-80
2022/05/21 01:01:16;;;;;;;11.85;6.55;;;;;;;10.14;100.00;101290.41;685566;28;1154;-81
2022/05/21 01:01:42;;;;;;;11.13;6.60;;;;;;;10.15;100.00;101318.28;687041;28;4319;-81
2022/05/21 01:02:18;;;;;;;9.88;6.30;;;;;;;10.16;100.00;101320.94;682245;28;1522;-81
2022/05/21 01:02:47;;;;;;;9.40;5.97;;;;;;;10.19;100.00;101314.81;678468;29;1728;-81
2022/05/21 01:03:11;;;;;;;9.70;6.38;;;;;;;10.19;100.00;101291.31;677267;29;1258;-81
2022/05/21 01:03:34;;;;;;;8.95;5.90;;;;;;;10.15;100.00;101324.41;676861;29;1437;-80
2022/05/21 01:03:55;;;;;;;10.23;6.10;;;;;;;10.13;100.00;101322.63;679420;29;1277;-80
2022/05/21 01:04:16;;;;;;;10.98;6.07;;;;;;;10.11;100.00;101321.75;679343;29;1775;-80
2022/05/21 01:04:39;;;;;;;10.45;6.00;;;;;;;10.12;100.00;101311.31;676496;29;4527;-80
2022/05/21 01:05:06;;;;;;;10.98;6.50;;;;;;;10.14;100.00;101286.06;683887;28;1922;-80
2022/05/21 01:05:27;;;;;;;10.60;6.30;;;;;;;10.13;100.00;101314.78;684550;28;1277;-80
2022/05/21 01:05:48;;;;;;;10.07;6.30;;;;;;;10.18;100.00;101306.13;687615;28;1522;-80
2022/05/21 01:06:11;;;;;;;9.35;6.30;;;;;;;10.20;100.00;101314.84;688016;28;1698;-80
2022/05/21 01:06:32;;;;;;;8.57;6.10;;;;;;;10.22;100.00;101312.25;687882;28;1596;-80
2022/05/21 01:06:56;;;;;;;11.52;6.30;;;;;;;10.18;100.00;101313.09;688896;28;1590;-81
2022/05/21 01:07:22;;;;;;;11.35;6.25;;;;;;;10.15;100.00;101306.09;687717;28;1578;-81
2022/05/21 01:07:46;;;;;;;9.20;6.07;;;;;;;10.13;100.00;101279.06;687565;28;4526;-80
2022/05/21 01:08:12;;;;;;;9.85;6.18;;;;;;;10.09;100.00;101282.53;684795;28;1444;-81
2022/05/21 01:08:33;;;;;;;9.20;6.40;;;;;;;10.12;100.00;101286.91;690384;28;1441;-81
2022/05/21 01:08:58;;;;;;;11.00;6.43;;;;;;;10.11;100.00;101286.03;687520;28;1300;-80
2022/05/21 01:09:22;;;;;;;10.68;6.32;;;;;;;10.10;100.00;101318.25;687722;28;1552;-81
2022/05/21 01:09:52;;;;;;;9.90;6.23;;;;;;;10.06;100.00;101303.41;684520;28;1808;-81
2022/05/21 01:10:16;;;;;;;8.93;6.28;;;;;;;10.00;100.00;101287.72;688071;28;1517;-80
2022/05/21 01:10:44;;;;;;;10.75;6.65;;;;;;;9.96;100.00;101288.53;686505;28;4311;-80
2022/05/21 01:11:11;;;;;;;9.43;6.85;;;;;;;9.98;100.00;101284.19;688619;28;1337;-81
2022/05/21 01:11:32;;;;;;;10.00;6.45;;;;;;;10.00;100.00;101308.59;689180;28;1695;-81
2022/05/21 01:12:04;;;;;;;10.30;6.57;;;;;;;10.03;100.00;101308.63;687461;28;1443;-81
2022/05/21 01:12:32;;;;;;;9.80;6.07;;;;;;;10.01;100.00;101307.72;687237;28;2463;-81
2022/05/21 01:12:59;;;;;;;10.52;6.80;;;;;;;9.97;100.00;101303.31;688968;28;1561;-81
2022/05/21 01:13:33;;;;;;;10.00;7.00;;;;;;;9.95;100.00;101305.06;685814;28;3362;-81
2022/05/21 01:13:56;;;;;;;9.80;7.22;;;;;;;9.93;100.00;101286.78;688892;28;4751;-81
2022/05/21 01:14:20;;;;;;;10.07;6.80;;;;;;;9.96;100.00;101296.38;689852;28;1324;-81
2022/05/21 01:14:42;;;;;;;9.88;6.43;;;;;;;9.94;100.00;101283.31;687410;28;1512;-81
2022/05/21 01:15:09;;;;;;;9.60;6.32;;;;;;;9.93;100.00;101283.28;684791;28;1975;-81
2022/05/21 01:15:34;;;;;;;9.48;6.35;;;;;;;9.95;100.00;101295.50;684868;28;1557;-81
2022/05/21 01:15:55;;;;;;;8.98;6.22;;;;;;;9.97;100.00;101290.28;684510;28;1267;-80
2022/05/21 01:16:17;;;;;;;9.52;6.20;;;;;;;9.96;100.00;101280.72;682095;28;1646;-81
2022/05/21 01:16:42;;;;;;;11.18;6.78;;;;;;;9.95;100.00;101276.34;684592;28;4346;-81
2022/05/21 01:17:05;;;;;;;12.00;6.80;;;;;;;9.96;100.00;101280.72;688151;28;1536;-81
2022/05/21 01:17:26;;;;;;;10.13;6.20;;;;;;;9.95;100.00;101315.53;688316;28;1217;-81
2022/05/21 01:17:47;;;;;;;10.60;6.60;;;;;;;9.96;100.00;101299.00;690418;28;1530;-81
2022/05/21 01:18:09;;;;;;;10.35;6.90;;;;;;;9.95;100.00;101282.44;685184;28;1356;-81
2022/05/21 01:18:30;;;;;;;10.07;7.13;;;;;;;9.99;100.00;101294.66;684209;28;1731;-81
2022/05/21 01:18:51;;;;;;;9.93;6.72;;;;;;;9.94;100.00;101306.81;684991;28;1225;-80
2022/05/21 01:19:15;;;;;;;9.98;6.88;;;;;;;9.92;100.00;101287.63;684191;28;1240;-81
2022/05/21 01:20:20;;;;;;;11.55;6.85;;;;;;;9.89;100.00;101288.47;687087;28;4325;-81
2022/05/21 01:20:48;;;;;;;11.52;6.40;;;;;;;9.88;100.00;101294.59;688571;28;1972;-80
2022/05/21 01:21:14;;;;;;;10.60;6.55;;;;;;;9.87;100.00;101277.16;693156;28;1538;-81
2022/05/21 01:21:38;;;;;;;10.93;6.47;;;;;;;9.89;100.00;101285.88;687694;28;1243;-81
2022/05/21 01:21:59;;;;;;;9.35;6.53;;;;;;;9.88;100.00;101284.16;687872;28;1284;-81
2022/05/21 01:22:31;;;;;;;9.75;6.35;;;;;;;9.84;100.00;101302.38;685946;28;1307;-81
2022/05/21 01:22:53;;;;;;;8.38;6.75;;;;;;;9.84;100.00;101287.59;675068;28;4293;-81
2022/05/21 01:23:16;;;;;;;10.02;6.82;;;;;;;9.84;100.00;101313.72;686041;28;1518;-81
2022/05/21 01:23:37;;;;;;;9.27;6.60;;;;;;;9.84;100.00;101286.69;686826;28;1397;-81
2022/05/21 01:23:58;;;;;;;9.30;6.43;;;;;;;9.86;100.00;101290.22;686769;28;1301;-81
2022/05/21 01:24:21;;;;;;;10.23;6.57;;;;;;;9.86;100.00;101298.91;685646;28;1679;-81
2022/05/21 01:24:44;;;;;;;13.20;6.70;;;;;;;9.85;100.00;101294.53;685012;28;1429;-81
2022/05/21 01:25:08;;;;;;;12.85;6.93;;;;;;;9.85;100.00;101298.91;688243;28;2106;-81
2022/05/21 01:25:31;;;;;;;10.88;7.05;;;;;;;9.86;100.00;101280.63;686831;28;1590;-81
2022/05/21 01:25:57;;;;;;;10.07;6.50;;;;;;;9.89;100.00;101305.91;683108;28;4333;-81
2022/05/21 01:26:22;;;;;;;10.82;7.03;;;;;;;9.88;100.00;101299.81;684555;28;1948;-81
2022/05/21 01:26:48;;;;;;;10.73;6.65;;;;;;;9.88;100.00;101280.63;684676;28;1379;-81
2022/05/21 01:27:11;;;;;;;9.60;6.40;;;;;;;9.85;100.00;101273.66;685138;28;1606;-81
2022/05/21 01:27:32;;;;;;;11.17;7.00;;;;;;;9.84;100.00;101312.81;685164;28;1808;-81
2022/05/21 01:27:53;;;;;;;10.82;6.82;;;;;;;9.81;100.00;101271.88;687103;28;1435;-81
2022/05/21 01:28:20;;;;;;;9.57;6.72;;;;;;;9.81;100.00;101294.50;688123;28;1299;-81
2022/05/21 01:28:47;;;;;;;10.38;6.72;;;;;;;9.83;100.00;101275.38;683675;28;4294;-81
2022/05/21 01:29:17;;;;;;;9.63;7.13;;;;;;;9.84;100.00;101302.38;687119;28;1597;-81
2022/05/21 01:29:42;;;;;;;9.02;6.40;;;;;;;9.83;100.00;101280.63;685094;28;1467;-81
2022/05/21 01:30:07;;;;;;;9.75;6.70;;;;;;;9.85;100.00;101283.22;686620;28;1695;-81
2022/05/21 01:30:34;;;;;;;10.45;6.78;;;;;;;9.85;100.00;101284.09;687333;28;1717;-81
2022/05/21 01:30:58;;;;;;;11.43;6.53;;;;;;;9.84;100.00;101277.16;689419;28;1308;-81
2022/05/21 01:31:19;;;;;;;10.35;7.00;;;;;;;9.85;100.00;101306.72;687989;28;1516;-81
2022/05/21 01:31:39;;;;;;;8.82;6.55;;;;;;;9.86;100.00;101271.94;677837;28;4523;-81
2022/05/21 01:32:05;;;;;;;9.27;6.20;;;;;;;9.86;100.00;101279.75;687438;28;1859;-81
2022/05/21 01:32:28;;;;;;;10.07;6.55;;;;;;;9.85;100.00;101270.19;687781;28;1587;-81
2022/05/21 01:32:52;;;;;;;11.18;6.63;;;;;;;9.86;100.00;101275.41;687926;28;1537;-81
2022/05/21 01:33:15;;;;;;;10.45;7.00;;;;;;;9.85;100.00;101273.66;688312;28;1425;-81
2022/05/21 01:33:39;;;;;;;11.65;7.22;;;;;;;9.80;100.00;101280.59;688153;28;1440;-81
2022/05/21 01:34:06;;;;;;;11.27;7.28;;;;;;;9.80;100.00;101279.69;687363;28;1521;-82
2022/05/21 01:34:27;;;;;;;11.05;6.80;;;;;;;9.81;100.00;101281.44;687648;28;1611;-81
2022/05/21 01:34:48;;;;;;;9.95;6.75;;;;;;;9.81;100.00;101277.09;676596;28;4398;-81
2022/05/21 01:35:15;;;;;;;10.55;7.05;;;;;;;9.84;100.00;101294.53;687024;28;1537;-81
2022/05/21 01:35:40;;;;;;;10.60;7.05;;;;;;;9.84;100.00;101295.44;685567;28;1453;-81
2022/05/21 01:36:03;;;;;;;11.07;6.70;;;;;;;9.85;100.00;101280.63;685545;28;1355;-81
2022/05/21 01:36:25;;;;;;;9.40;6.47;;;;;;;9.86;100.00;101280.63;684975;28;1588;-81
2022/05/21 01:36:47;;;;;;;10.88;6.45;;;;;;;9.85;100.00;101291.94;684665;28;1585;-81
2022/05/21 01:37:11;;;;;;;10.38;6.65;;;;;;;9.82;100.00;101306.72;691622;28;1859;-81
2022/05/21 01:37:31;;;;;;;10.30;6.57;;;;;;;9.79;100.00;101289.28;693245;28;1306;-81
2022/05/21 01:37:53;;;;;;;11.55;6.97;;;;;;;9.77;100.00;101298.81;689618;28;4331;-80
2022/05/21 01:38:18;;;;;;;10.35;7.05;;;;;;;9.77;100.00;101275.31;687883;28;1962;-81
2022/05/21 01:38:38;;;;;;;10.45;7.00;;;;;;;9.79;100.00;101281.44;684649;28;1429;-81
2022/05/21 01:38:59;;;;;;;9.88;6.90;;;;;;;9.77;100.00;101296.22;685764;28;1281;-81
2022/05/21 01:39:20;;;;;;;11.00;7.47;;;;;;;9.80;100.00;101301.47;685507;28;1340;-81
2022/05/21 01:39:45;;;;;;;10.57;6.90;;;;;;;9.82;100.00;101275.38;687472;28;4606;-81
2022/05/21 01:40:12;;;;;;;10.55;6.75;;;;;;;9.81;100.00;101279.72;689840;28;1906;-81
2022/05/21 01:40:36;;;;;;;11.35;7.00;;;;;;;9.80;100.00;101295.38;689671;28;1336;-81
2022/05/21 01:40:57;;;;;;;10.82;6.65;;;;;;;9.79;100.00;101291.00;684113;28;4564;-81
2022/05/21 01:41:25;;;;;;;11.27;6.85;;;;;;;9.76;100.00;101304.03;682145;29;1582;-81
2022/05/21 01:41:54;;;;;;;10.75;7.10;;;;;;;9.77;100.00;101275.31;682441;28;1541;-81
2022/05/21 01:42:15;;;;;;;10.27;6.97;;;;;;;9.70;100.00;101273.53;683284;28;1280;-81
2022/05/21 01:42:36;;;;;;;11.05;7.63;;;;;;;9.65;100.00;101275.22;685053;28;1438;-81
2022/05/21 01:44:37;;;;;;;12.98;7.10;;;;;;;9.62;100.00;101280.41;684189;28;5781;-81
2022/05/21 01:45:01;;;;;;;10.73;7.07;;;;;;;9.62;100.00;101273.47;693289;28;1279;-81
2022/05/21 01:45:22;;;;;;;10.77;7.30;;;;;;;9.64;100.00;101291.75;689494;28;1822;-81
2022/05/21 01:45:43;;;;;;;12.07;7.40;;;;;;;9.64;100.00;101289.16;687844;28;1396;-81
2022/05/21 01:46:04;;;;;;;11.80;7.25;;;;;;;9.61;100.00;101282.16;686105;28;1867;-81
2022/05/21 01:46:25;;;;;;;12.05;7.47;;;;;;;9.61;100.00;101273.44;688201;28;1939;-81
2022/05/21 01:46:52;;;;;;;11.48;6.88;;;;;;;9.64;100.00;101289.16;689012;28;4525;-81
2022/05/21 01:47:15;;;;;;;11.70;7.28;;;;;;;9.65;100.00;101290.88;687612;28;1681;-81
2022/05/21 01:47:42;;;;;;;12.15;7.35;;;;;;;9.61;100.00;101309.97;685630;28;1491;-81
2022/05/21 01:48:12;;;;;;;11.27;7.43;;;;;;;9.63;100.00;101283.03;686289;28;1783;-81
2022/05/21 01:48:39;;;;;;;10.98;7.28;;;;;;;9.63;100.00;101271.72;687688;28;1419;-81
2022/05/21 01:49:00;;;;;;;11.73;7.13;;;;;;;9.63;100.00;101290.88;688489;28;1391;-81
2022/05/21 01:49:23;;;;;;;11.13;7.32;;;;;;;9.62;100.00;101304.81;687017;28;1177;-81
2022/05/21 01:49:47;;;;;;;10.93;7.63;;;;;;;9.60;100.00;101316.09;689138;28;4315;-81
2022/05/21 01:50:08;;;;;;;12.38;7.90;;;;;;;9.59;100.00;101303.88;690745;28;1524;-81
2022/05/21 01:50:30;;;;;;;11.88;7.60;;;;;;;9.58;100.00;101282.13;691795;28;1674;-81
2022/05/21 01:50:52;;;;;;;11.70;7.25;;;;;;;9.61;100.00;101279.56;686680;28;1637;-81
2022/05/21 01:51:13;;;;;;;10.18;7.43;;;;;;;9.60;100.00;101280.41;683926;28;1549;-80
2022/05/21 01:51:37;;;;;;;12.30;7.70;;;;;;;9.58;100.00;101279.53;682691;29;1720;-81
2022/05/21 01:51:58;;;;;;;12.18;7.38;;;;;;;9.59;100.00;101291.69;690414;28;1673;-81
2022/05/21 01:52:19;;;;;;;10.85;7.35;;;;;;;9.57;100.00;101300.38;689973;28;1320;-81
2022/05/21 01:52:45;;;;;;;11.32;8.05;;;;;;;9.51;100.00;101298.56;679814;28;4272;-81
2022/05/21 01:53:15;;;;;;;12.43;8.13;;;;;;;9.48;100.00;101277.69;684502;28;1455;-80
2022/05/21 01:53:40;;;;;;;12.65;8.38;;;;;;;9.52;100.00;101276.84;684195;28;1673;-80
2022/05/21 01:54:03;;;;;;;11.48;7.95;;;;;;;9.51;100.00;101280.31;688009;28;1208;-81
2022/05/21 01:54:29;;;;;;;11.68;7.85;;;;;;;9.46;100.00;101290.72;685156;28;1718;-81
2022/05/21 01:54:51;;;;;;;13.27;8.18;;;;;;;9.46;100.00;101301.16;684995;28;2167;-81
2022/05/21 01:55:14;;;;;;;11.52;8.20;;;;;;;9.51;100.00;101294.25;685304;28;2488;-81
2022/05/21 01:55:35;;;;;;;11.82;8.23;;;;;;;9.54;100.00;101306.47;681076;28;1521;-81
2022/05/21 01:55:57;;;;;;;12.90;8.45;;;;;;;9.56;100.00;101289.06;683102;28;4268;-81
2022/05/21 01:56:20;;;;;;;12.20;8.02;;;;;;;9.58;100.00;101281.25;685084;28;1334;-81
2022/05/21 01:56:44;;;;;;;13.20;8.35;;;;;;;9.58;100.00;101303.03;685157;28;1319;-81
2022/05/21 01:57:10;;;;;;;11.93;8.52;;;;;;;9.52;100.00;101274.25;687256;28;1505;-81
2022/05/21 01:57:30;;;;;;;12.30;8.10;;;;;;;9.53;100.00;101296.88;687767;28;1702;-81